Time;durP1;ratioP1;P1;durP2;ratioP2;P2;SDS_P1;SDS_P2;PMS_P1;PMS_P2;Temp;Humidity;BMP_temperature;BMP_pressure;BME280_temperature;BME280_humidity;BME280_pressure;Samples;Min_cycle;Max_cycle;Signal;HPM_P1;HPM_P2
2023/04/07 00:01:26;;;;;;;7.83;7.17;;;9.90;94.30;;;;;;5014445;28;20204;-87
2023/04/07 00:03:51;;;;;;;8.43;7.73;;;9.90;92.80;;;;;;4995623;28;20273;-88
2023/04/07 00:06:17;;;;;;;9.07;7.73;;;9.90;91.30;;;;;;5013140;28;20200;-88
2023/04/07 00:08:42;;;;;;;8.57;7.77;;;9.90;92.40;;;;;;5013762;28;20195;-88
2023/04/07 00:11:08;;;;;;;8.37;7.20;;;9.90;93.50;;;;;;5014172;28;20223;-87
2023/04/07 00:13:34;;;;;;;8.07;7.47;;;9.90;88.90;;;;;;5013156;28;20193;-89
2023/04/07 00:16:00;;;;;;;8.43;7.63;;;9.80;86.90;;;;;;5022563;28;20187;-88
2023/04/07 00:18:26;;;;;;;7.87;7.17;;;9.60;85.50;;;;;;5042151;28;20227;-88
2023/04/07 00:20:51;;;;;;;7.97;7.17;;;9.40;86.50;;;;;;5034844;28;20264;-86
2023/04/07 00:23:17;;;;;;;8.90;8.10;;;9.30;86.70;;;;;;5034977;28;20185;-86
2023/04/07 00:25:42;;;;;;;7.97;7.27;;;9.30;87.90;;;;;;5034475;28;20181;-88
2023/04/07 00:28:08;;;;;;;8.00;7.30;;;9.20;87.50;;;;;;5021363;28;20204;-87
2023/04/07 00:30:34;;;;;;;7.90;7.20;;;9.10;90.00;;;;;;5015812;28;20208;-89
2023/04/07 00:32:59;;;;;;;6.83;6.17;;;9.10;90.60;;;;;;5031552;28;20703;-88
2023/04/07 00:35:25;;;;;;;7.20;6.53;;;9.20;90.10;;;;;;5033196;28;20201;-88
2023/04/07 00:37:51;;;;;;;8.93;7.17;;;9.40;88.50;;;;;;5035044;28;20259;-89
2023/04/07 00:40:17;;;;;;;7.17;6.47;;;9.40;88.50;;;;;;5034625;28;20246;-87
2023/04/07 00:42:42;;;;;;;7.33;6.63;;;9.50;88.30;;;;;;5034621;28;20189;-87
2023/04/07 00:45:10;;;;;;;7.97;7.30;;;9.50;88.10;;;;;;5033998;28;20184;-86
2023/04/07 00:47:35;;;;;;;7.03;6.43;;;9.60;85.80;;;;;;5016624;28;20248;-89
2023/04/07 00:50:03;;;;;;;7.93;7.20;;;9.40;87.60;;;;;;5029075;28;20185;-88
2023/04/07 00:52:31;;;;;;;7.93;7.27;;;9.30;88.40;;;;;;5048023;28;20165;-89
2023/04/07 00:54:58;;;;;;;6.90;6.30;;;9.30;89.10;;;;;;5054102;28;20181;-90
2023/04/07 00:57:24;;;;;;;7.67;6.90;;;9.20;89.70;;;;;;5055570;28;20173;-90
2023/04/07 00:59:51;;;;;;;7.50;6.80;;;9.20;89.60;;;;;;5055713;28;20209;-85
2023/04/07 01:02:35;;;;;;;7.40;6.47;;;9.20;88.50;;;;;;5039555;28;20204;-88
2023/04/07 01:05:19;;;;;;;7.50;6.80;;;9.20;88.80;;;;;;5037333;28;20517;-85
2023/04/07 01:08:01;;;;;;;6.57;5.97;;;9.30;88.50;;;;;;5035882;28;20685;-87
2023/04/07 01:10:36;;;;;;;7.37;6.77;;;9.40;90.50;;;;;;5035607;28;20272;-90
2023/04/07 01:13:12;;;;;;;7.57;6.97;;;9.40;92.50;;;;;;5043782;28;20234;-87
2023/04/07 01:15:39;;;;;;;6.90;6.20;;;9.60;91.00;;;;;;5016714;28;20172;-88
2023/04/07 01:18:20;;;;;;;6.30;5.80;;;9.60;91.20;;;;;;5017960;28;20232;-87
2023/04/07 01:20:50;;;;;;;7.40;6.70;;;9.70;86.80;;;;;;5036684;28;20272;-87
2023/04/07 01:24:01;;;;;;;6.00;5.60;;;9.70;88.60;;;;;;5038080;28;20268;-88
2023/04/07 01:26:32;;;;;;;6.50;6.00;;;9.70;90.70;;;;;;5017148;28;20197;-89
2023/04/07 01:29:04;;;;;;;6.60;6.00;;;9.60;90.50;;;;;;5031991;28;20280;-87
2023/04/07 01:31:30;;;;;;;6.30;5.80;;;9.50;90.90;;;;;;5022602;28;20678;-87
2023/04/07 01:33:59;;;;;;;6.27;5.77;;;9.50;92.10;;;;;;5038865;28;20398;-88
2023/04/07 01:36:27;;;;;;;6.73;6.23;;;9.50;91.90;;;;;;5038099;28;20181;-88
2023/04/07 01:38:54;;;;;;;5.97;5.40;;;9.50;92.40;;;;;;5038598;28;20270;-88
2023/04/07 01:41:22;;;;;;;6.27;5.73;;;9.50;92.30;;;;;;5037752;28;20209;-88
2023/04/07 01:43:48;;;;;;;6.17;5.63;;;9.40;91.90;;;;;;5038246;28;20188;-87
2023/04/07 01:46:14;;;;;;;6.47;5.70;;;9.40;92.70;;;;;;5036082;28;20545;-89
2023/04/07 01:48:41;;;;;;;6.27;5.77;;;9.40;92.30;;;;;;5037161;28;20205;-88
2023/04/07 01:51:10;;;;;;;5.83;5.37;;;9.40;92.50;;;;;;5036552;28;20700;-87
2023/04/07 01:53:37;;;;;;;5.90;5.40;;;9.40;93.70;;;;;;5036525;28;20177;-87
2023/04/07 01:56:03;;;;;;;7.83;6.57;;;9.30;94.00;;;;;;5036871;28;20185;-88
2023/04/07 01:58:29;;;;;;;6.30;5.70;;;9.10;95.90;;;;;;5051438;28;20201;-90
2023/04/07 02:00:55;;;;;;;5.77;5.23;;;9.10;96.40;;;;;;5026870;28;20702;-87
2023/04/07 02:03:30;;;;;;;5.70;5.20;;;9.10;95.90;;;;;;5014102;28;20182;-86
2023/04/07 02:06:03;;;;;;;6.30;5.80;;;9.10;96.00;;;;;;5016217;28;20180;-87
2023/04/07 02:08:31;;;;;;;6.50;5.73;;;9.20;95.90;;;;;;5031585;28;20205;-86
2023/04/07 02:10:59;;;;;;;6.17;5.63;;;9.20;93.50;;;;;;5051468;28;20216;-87
2023/04/07 02:13:26;;;;;;;6.80;6.20;;;9.20;96.40;;;;;;5055640;28;20232;-87
2023/04/07 02:15:53;;;;;;;5.77;5.27;;;9.20;96.80;;;;;;5048678;28;20229;-87
2023/04/07 02:18:19;;;;;;;6.80;6.10;;;9.20;97.00;;;;;;5010861;28;20221;-88
2023/04/07 02:20:46;;;;;;;5.83;5.27;;;9.20;94.70;;;;;;5038750;28;20210;-87
2023/04/07 02:23:12;;;;;;;6.33;5.83;;;9.30;95.70;;;;;;5037629;28;20672;-88
2023/04/07 02:25:38;;;;;;;6.70;6.20;;;9.30;93.50;;;;;;5035524;28;20223;-87
2023/04/07 02:28:05;;;;;;;6.63;6.00;;;9.30;93.00;;;;;;5035652;28;20208;-87
2023/04/07 02:30:32;;;;;;;8.00;6.40;;;9.30;93.40;;;;;;5036300;28;20209;-87
2023/04/07 02:32:57;;;;;;;6.40;5.80;;;9.30;91.90;;;;;;5019554;28;20194;-87
2023/04/07 02:35:23;;;;;;;6.27;5.83;;;9.30;92.30;;;;;;5016228;28;20185;-88
2023/04/07 02:37:49;;;;;;;6.33;5.83;;;9.30;93.30;;;;;;5036009;28;20233;-88
2023/04/07 02:40:15;;;;;;;6.43;5.93;;;9.30;92.70;;;;;;5040179;28;20285;-87
2023/04/07 02:42:41;;;;;;;6.60;6.10;;;9.20;92.60;;;;;;5033860;28;20255;-87
2023/04/07 02:45:08;;;;;;;7.03;6.33;;;9.10;93.80;;;;;;5035512;28;20230;-90
2023/04/07 02:47:35;;;;;;;6.60;6.10;;;9.20;93.50;;;;;;5027509;28;20269;-88
2023/04/07 02:50:01;;;;;;;7.00;6.40;;;9.20;93.10;;;;;;5028582;28;20188;-87
2023/04/07 02:52:27;;;;;;;6.90;6.30;;;9.10;93.60;;;;;;5033816;28;20811;-87
2023/04/07 02:54:53;;;;;;;6.77;6.07;;;9.10;92.90;;;;;;5032454;28;20184;-87
2023/04/07 02:57:18;;;;;;;7.13;6.60;;;9.20;92.70;;;;;;5031788;28;20185;-87
2023/04/07 02:59:44;;;;;;;6.00;5.40;;;9.20;92.20;;;;;;5034142;28;20189;-87
2023/04/07 03:02:10;;;;;;;6.60;6.03;;;9.10;93.40;;;;;;5034662;28;20201;-87
2023/04/07 03:04:35;;;;;;;6.07;5.57;;;9.00;94.90;;;;;;5038913;28;20191;-86
2023/04/07 03:07:01;;;;;;;6.63;5.97;;;8.90;96.00;;;;;;5042686;28;20248;-85
2023/04/07 03:09:27;;;;;;;6.33;5.73;;;8.90;95.10;;;;;;5035117;28;20845;-87
2023/04/07 03:11:52;;;;;;;5.90;5.40;;;8.80;96.40;;;;;;5034803;28;20563;-87
2023/04/07 03:14:18;;;;;;;5.43;4.93;;;8.70;95.40;;;;;;5034913;28;20574;-88
2023/04/07 03:16:44;;;;;;;5.80;5.27;;;8.80;95.70;;;;;;5035735;28;20189;-87
2023/04/07 03:19:09;;;;;;;6.20;5.60;;;8.90;95.10;;;;;;5026565;28;20220;-86
2023/04/07 03:21:36;;;;;;;6.53;5.93;;;8.80;96.70;;;;;;5035771;28;20198;-88
2023/04/07 03:24:02;;;;;;;7.43;6.73;;;8.90;95.00;;;;;;5035561;28;20248;-87
2023/04/07 03:26:28;;;;;;;7.90;7.10;;;8.80;95.10;;;;;;5035823;28;20222;-87
2023/04/07 03:28:53;;;;;;;9.60;8.77;;;8.80;95.20;;;;;;5019508;28;20221;-88
2023/04/07 03:31:19;;;;;;;12.43;11.13;;;8.70;96.80;;;;;;5016404;28;20205;-88
2023/04/07 03:33:45;;;;;;;9.67;8.87;;;8.70;97.50;;;;;;5015879;28;20178;-87
2023/04/07 03:36:10;;;;;;;9.43;7.60;;;8.70;95.50;;;;;;5015133;28;20332;-86
2023/04/07 03:38:36;;;;;;;8.77;8.07;;;8.70;96.10;;;;;;5028666;28;20879;-88
2023/04/07 03:41:02;;;;;;;9.67;8.63;;;8.70;95.90;;;;;;5034671;28;20204;-86
2023/04/07 03:43:27;;;;;;;8.47;7.77;;;8.80;95.00;;;;;;5033606;28;20263;-88
2023/04/07 03:45:53;;;;;;;9.87;8.40;;;8.80;95.70;;;;;;5032189;28;20185;-87
2023/04/07 03:48:19;;;;;;;8.30;7.40;;;8.80;96.10;;;;;;5032020;28;20219;-87
2023/04/07 03:50:45;;;;;;;8.47;7.67;;;8.80;96.50;;;;;;5033760;28;20180;-87
2023/04/07 03:53:13;;;;;;;8.40;7.23;;;8.60;95.40;;;;;;5031769;28;20182;-87
2023/04/07 03:55:39;;;;;;;8.80;8.10;;;8.60;96.80;;;;;;5032166;28;20343;-87
2023/04/07 03:58:05;;;;;;;7.90;7.20;;;8.60;97.00;;;;;;5031824;28;20238;-87
2023/04/07 04:00:32;;;;;;;8.30;7.60;;;8.70;96.60;;;;;;5036080;28;20224;-87
2023/04/07 04:02:58;;;;;;;8.27;7.53;;;8.70;97.80;;;;;;5045799;28;20210;-87
2023/04/07 04:05:23;;;;;;;8.67;7.97;;;8.70;97.00;;;;;;5054328;28;20298;-86
2023/04/07 04:07:51;;;;;;;7.60;6.90;;;8.70;96.50;;;;;;5047210;28;20205;-90
2023/04/07 04:10:20;;;;;;;8.13;7.27;;;8.70;96.50;;;;;;5034106;28;20173;-86
2023/04/07 04:12:49;;;;;;;6.57;6.03;;;8.70;96.30;;;;;;5034944;28;20197;-86
2023/04/07 04:15:15;;;;;;;7.20;6.60;;;8.80;95.60;;;;;;5034621;28;20177;-88
2023/04/07 04:17:41;;;;;;;7.50;6.80;;;8.80;96.20;;;;;;5016666;28;20232;-87
2023/04/07 04:20:07;;;;;;;7.00;6.50;;;8.70;96.60;;;;;;5014626;28;20202;-86
2023/04/07 04:22:33;;;;;;;7.40;6.70;;;8.80;96.10;;;;;;5014306;28;20579;-87
2023/04/07 04:25:00;;;;;;;6.67;6.07;;;8.80;96.10;;;;;;5014079;28;20184;-87
2023/04/07 04:27:26;;;;;;;6.80;5.97;;;8.70;95.80;;;;;;5030079;28;20185;-88
2023/04/07 04:29:52;;;;;;;8.43;7.53;;;8.80;95.30;;;;;;5025608;28;20821;-87
2023/04/07 04:32:18;;;;;;;7.60;7.00;;;8.80;95.00;;;;;;5014686;28;20195;-88
2023/04/07 04:34:44;;;;;;;7.77;6.97;;;8.80;95.50;;;;;;5014495;28;20187;-87
2023/04/07 04:37:10;;;;;;;7.27;6.57;;;8.80;96.30;;;;;;5017229;28;20189;-87
2023/04/07 04:39:36;;;;;;;7.30;6.70;;;8.80;97.10;;;;;;5034681;28;20263;-87
2023/04/07 04:42:02;;;;;;;8.97;7.53;;;8.80;96.70;;;;;;5037130;28;20208;-86
2023/04/07 04:44:29;;;;;;;6.53;5.97;;;8.80;96.60;;;;;;5036618;28;20268;-87
2023/04/07 04:46:55;;;;;;;6.90;6.20;;;8.80;94.20;;;;;;5034718;28;20930;-87
2023/04/07 04:49:21;;;;;;;7.70;7.00;;;8.70;95.00;;;;;;5036388;28;20226;-87
2023/04/07 04:51:47;;;;;;;7.57;6.90;;;8.60;96.40;;;;;;5036409;28;20303;-89
2023/04/07 04:54:13;;;;;;;7.37;6.23;;;8.40;97.30;;;;;;5036831;28;20193;-88
2023/04/07 04:56:38;;;;;;;7.00;6.40;;;8.40;98.40;;;;;;5038505;28;20199;-87
2023/04/07 04:59:04;;;;;;;7.10;6.43;;;8.30;98.60;;;;;;5040482;28;20209;-87
2023/04/07 05:01:30;;;;;;;6.87;6.27;;;8.20;99.60;;;;;;5036279;28;20730;-87
2023/04/07 05:03:55;;;;;;;6.00;5.50;;;8.30;99.00;;;;;;5036688;28;20196;-86
2023/04/07 05:06:21;;;;;;;7.00;6.17;;;8.30;98.80;;;;;;5030468;28;20190;-88
2023/04/07 05:08:47;;;;;;;7.73;7.07;;;8.30;98.50;;;;;;5034899;28;20240;-87
2023/04/07 05:11:13;;;;;;;7.27;6.57;;;8.30;98.50;;;;;;5037258;28;20181;-86
2023/04/07 05:13:39;;;;;;;7.83;7.17;;;8.30;98.80;;;;;;5025867;28;20723;-86
2023/04/07 05:16:05;;;;;;;7.43;6.80;;;8.30;98.20;;;;;;5016376;28;20579;-87
2023/04/07 05:18:31;;;;;;;7.53;6.83;;;8.20;99.30;;;;;;5035097;28;20221;-87
2023/04/07 05:20:56;;;;;;;7.87;7.07;;;8.10;99.70;;;;;;5036322;28;20370;-88
2023/04/07 05:23:22;;;;;;;8.00;7.20;;;8.10;99.90;;;;;;5036614;28;20185;-88
2023/04/07 05:25:47;;;;;;;7.93;7.13;;;8.00;99.90;;;;;;5036044;28;20223;-87
2023/04/07 05:28:13;;;;;;;7.47;6.47;;;8.10;99.90;;;;;;5019298;28;20769;-87
2023/04/07 05:30:39;;;;;;;7.03;6.33;;;8.00;99.90;;;;;;5018469;28;20216;-88
2023/04/07 05:33:05;;;;;;;7.07;6.37;;;7.90;99.90;;;;;;5036519;28;20272;-87
2023/04/07 05:35:31;;;;;;;7.13;6.53;;;7.90;99.90;;;;;;5034631;28;20227;-87
2023/04/07 05:37:56;;;;;;;7.57;6.87;;;7.90;99.90;;;;;;5025142;28;20771;-88
2023/04/07 05:40:23;;;;;;;7.50;6.80;;;8.00;99.90;;;;;;5015650;28;20499;-89
2023/04/07 05:42:48;;;;;;;7.63;6.93;;;8.00;99.90;;;;;;4996652;28;20232;-88
2023/04/07 05:45:14;;;;;;;7.80;7.10;;;8.10;99.90;;;;;;5017893;28;20193;-89
2023/04/07 05:47:40;;;;;;;8.10;7.40;;;8.00;99.90;;;;;;5037155;28;20212;-89
2023/04/07 05:50:06;;;;;;;7.67;6.97;;;8.10;99.90;;;;;;5053831;28;20193;-88
2023/04/07 05:52:32;;;;;;;7.23;6.60;;;8.30;99.90;;;;;;5055304;28;20180;-88
2023/04/07 05:54:57;;;;;;;8.03;7.33;;;8.40;99.50;;;;;;5043315;28;20305;-87
2023/04/07 05:57:23;;;;;;;7.63;6.30;;;8.30;99.70;;;;;;5038329;28;20512;-86
2023/04/07 05:59:48;;;;;;;7.10;6.50;;;8.20;99.00;;;;;;5038159;28;20208;-87
2023/04/07 06:02:14;;;;;;;6.87;6.37;;;8.30;99.60;;;;;;5036497;28;20216;-88
2023/04/07 06:04:40;;;;;;;7.17;6.50;;;8.40;99.40;;;;;;5035396;28;20165;-87
2023/04/07 06:07:06;;;;;;;7.50;6.80;;;8.60;98.90;;;;;;5019582;28;20181;-86
2023/04/07 06:09:31;;;;;;;7.27;6.67;;;8.80;97.30;;;;;;5020826;28;20197;-86
2023/04/07 06:11:57;;;;;;;8.93;7.13;;;8.90;96.20;;;;;;5020620;28;20186;-87
2023/04/07 06:14:23;;;;;;;7.27;6.67;;;9.00;96.80;;;;;;5021705;28;20184;-87
2023/04/07 06:16:49;;;;;;;7.63;6.83;;;9.20;98.10;;;;;;5026519;28;20268;-86
2023/04/07 06:19:14;;;;;;;6.63;6.03;;;9.20;97.80;;;;;;5023174;28;20263;-87
2023/04/07 06:21:40;;;;;;;6.70;6.10;;;9.20;98.10;;;;;;5003453;28;20576;-87
2023/04/07 06:24:06;;;;;;;7.07;6.47;;;9.20;95.60;;;;;;5021418;28;20612;-86
2023/04/07 06:26:32;;;;;;;7.37;6.67;;;9.20;96.30;;;;;;5024633;28;20183;-87
2023/04/07 06:28:58;;;;;;;7.17;6.47;;;9.30;94.10;;;;;;5034938;28;20229;-87
2023/04/07 06:31:24;;;;;;;7.23;6.63;;;9.20;94.80;;;;;;5031969;28;20178;-87
2023/04/07 06:33:50;;;;;;;7.43;6.73;;;9.10;94.30;;;;;;5014784;28;20178;-87
2023/04/07 06:36:16;;;;;;;7.07;6.37;;;9.10;94.90;;;;;;5013789;28;20175;-88
2023/04/07 06:38:41;;;;;;;7.03;6.43;;;9.10;94.70;;;;;;5030035;28;20571;-86
2023/04/07 06:41:10;;;;;;;8.00;7.30;;;9.10;91.50;;;;;;5033976;28;20217;-87
2023/04/07 06:43:36;;;;;;;7.37;6.67;;;9.00;93.90;;;;;;5032684;28;20795;-87
2023/04/07 06:46:02;;;;;;;7.10;6.50;;;9.00;94.50;;;;;;5032913;28;20185;-85
2023/04/07 06:48:28;;;;;;;7.97;7.17;;;9.00;94.60;;;;;;5018786;28;20220;-87
2023/04/07 06:50:53;;;;;;;7.70;7.10;;;8.80;95.20;;;;;;5039684;28;20263;-88
2023/04/07 06:53:19;;;;;;;8.90;8.10;;;8.80;96.40;;;;;;5030651;28;20235;-87
2023/04/07 06:55:45;;;;;;;9.83;8.63;;;8.70;95.60;;;;;;5028021;28;20185;-86
2023/04/07 06:58:10;;;;;;;8.53;7.83;;;8.80;93.60;;;;;;5043918;28;20280;-88
2023/04/07 07:00:36;;;;;;;10.10;8.40;;;8.80;93.10;;;;;;5010604;28;20235;-88
2023/04/07 07:03:02;;;;;;;8.90;7.87;;;9.00;92.00;;;;;;5016445;28;20186;-87
2023/04/07 07:05:27;;;;;;;8.43;7.73;;;9.10;91.50;;;;;;5033284;28;20177;-87
2023/04/07 07:07:53;;;;;;;8.67;7.67;;;9.40;89.50;;;;;;5032794;28;20193;-88
2023/04/07 07:10:21;;;;;;;9.07;7.47;;;9.50;89.00;;;;;;5032985;28;20169;-87
2023/04/07 07:12:50;;;;;;;9.77;8.70;;;9.60;89.70;;;;;;5033835;28;20735;-85
2023/04/07 07:15:16;;;;;;;8.47;7.77;;;9.80;86.90;;;;;;5034610;28;20173;-87
2023/04/07 07:17:42;;;;;;;8.60;7.80;;;9.90;88.40;;;;;;5046788;28;20224;-85
2023/04/07 07:20:09;;;;;;;8.37;7.67;;;10.00;87.30;;;;;;5053904;28;20196;-87
2023/04/07 07:22:34;;;;;;;8.37;7.63;;;9.90;88.20;;;;;;5053557;28;20194;-88
2023/04/07 07:25:00;;;;;;;9.03;8.13;;;9.90;88.10;;;;;;5033062;28;20194;-87
2023/04/07 07:27:26;;;;;;;8.20;7.60;;;10.10;86.50;;;;;;5024451;28;20203;-87
2023/04/07 07:29:51;;;;;;;8.37;7.57;;;10.20;86.20;;;;;;5034065;28;20194;-87
2023/04/07 07:32:17;;;;;;;8.77;7.90;;;10.20;85.20;;;;;;5022121;28;20185;-88
2023/04/07 07:34:43;;;;;;;9.30;8.40;;;10.40;84.80;;;;;;5029802;28;20212;-87
2023/04/07 07:37:08;;;;;;;8.50;7.80;;;10.50;85.00;;;;;;5033355;28;20258;-87
2023/04/07 07:39:34;;;;;;;8.60;7.90;;;10.50;86.00;;;;;;5033191;28;20261;-88
2023/04/07 07:42:00;;;;;;;8.00;7.27;;;10.70;85.30;;;;;;5033207;28;20251;-87
2023/04/07 07:44:26;;;;;;;7.80;7.20;;;10.70;84.20;;;;;;5033002;28;20335;-85
2023/04/07 07:46:51;;;;;;;8.67;7.83;;;10.60;84.70;;;;;;5022162;28;20191;-86
2023/04/07 07:49:17;;;;;;;9.23;7.70;;;10.60;84.20;;;;;;5033363;28;20208;-88
2023/04/07 07:51:42;;;;;;;9.57;8.77;;;10.50;84.80;;;;;;5030306;28;20618;-86
2023/04/07 07:54:08;;;;;;;8.87;8.00;;;10.40;87.50;;;;;;5029840;28;20192;-87
2023/04/07 07:56:34;;;;;;;9.03;8.20;;;10.00;89.80;;;;;;5033332;28;20312;-86
2023/04/07 07:59:01;;;;;;;9.33;8.43;;;10.20;90.20;;;;;;5035121;28;20292;-86
2023/04/07 08:01:26;;;;;;;9.43;8.50;;;10.00;90.30;;;;;;5022939;28;20213;-87
2023/04/07 08:03:52;;;;;;;8.93;8.23;;;10.20;91.50;;;;;;5033717;28;20189;-86
2023/04/07 08:06:17;;;;;;;9.50;8.70;;;10.30;87.90;;;;;;5033905;28;20678;-88
2023/04/07 08:08:43;;;;;;;7.97;7.30;;;10.50;88.30;;;;;;5034905;28;20198;-87
2023/04/07 08:11:09;;;;;;;9.03;8.23;;;10.60;86.00;;;;;;5032281;28;20243;-88
2023/04/07 08:13:35;;;;;;;9.27;8.37;;;10.70;86.50;;;;;;5021136;28;20186;-87
2023/04/07 08:16:01;;;;;;;8.80;8.07;;;10.80;86.40;;;;;;5025776;28;20236;-87
2023/04/07 08:18:27;;;;;;;7.50;6.80;;;11.10;84.70;;;;;;5031350;28;20216;-87
2023/04/07 08:20:52;;;;;;;8.00;7.23;;;11.40;81.30;;;;;;5028566;28;20207;-87
2023/04/07 08:23:18;;;;;;;8.20;7.50;;;11.70;79.70;;;;;;4995629;28;20345;-85
2023/04/07 08:25:44;;;;;;;10.50;7.77;;;11.50;78.20;;;;;;5012340;28;20179;-86
2023/04/07 08:28:09;;;;;;;8.13;7.43;;;11.40;79.20;;;;;;5014236;28;20205;-86
2023/04/07 08:30:36;;;;;;;7.30;6.50;;;11.50;80.80;;;;;;5013761;28;20188;-84
2023/04/07 08:33:04;;;;;;;8.30;7.10;;;11.60;79.30;;;;;;5015790;28;20195;-85
2023/04/07 08:35:30;;;;;;;9.13;6.97;;;11.90;79.70;;;;;;5051150;23;20234;-88
2023/04/07 08:37:55;;;;;;;8.10;7.23;;;12.00;77.40;;;;;;5065616;28;20203;-87
2023/04/07 08:40:21;;;;;;;8.60;7.20;;;12.10;78.40;;;;;;5063915;28;20184;-86
2023/04/07 08:42:48;;;;;;;7.30;6.50;;;12.30;77.70;;;;;;5044174;28;20218;-87
2023/04/07 08:45:16;;;;;;;7.40;6.27;;;12.40;76.50;;;;;;5073438;28;20227;-87
2023/04/07 08:47:42;;;;;;;8.97;6.33;;;12.40;75.20;;;;;;5073522;28;20346;-86
2023/04/07 08:50:10;;;;;;;7.07;6.37;;;12.50;77.80;;;;;;5064896;28;20191;-86
2023/04/07 08:53:09;;;;;;;6.70;6.10;;;12.40;74.20;;;;;;5059828;28;20185;-87
2023/04/07 08:55:35;;;;;;;6.70;6.10;;;12.20;72.80;;;;;;5015230;28;20247;-86
2023/04/07 08:58:03;;;;;;;7.13;5.67;;;12.10;75.10;;;;;;5058564;28;20346;-87
2023/04/07 09:00:28;;;;;;;7.77;6.70;;;12.30;74.30;;;;;;5042845;28;20199;-87
2023/04/07 09:02:54;;;;;;;7.83;7.03;;;12.50;75.80;;;;;;5062774;28;20181;-87
2023/04/07 09:05:20;;;;;;;8.60;7.03;;;12.70;74.00;;;;;;5056291;28;20203;-88
2023/04/07 09:07:46;;;;;;;8.33;7.30;;;12.70;72.70;;;;;;5067661;28;20174;-88
2023/04/07 09:10:12;;;;;;;7.73;7.03;;;12.50;74.60;;;;;;5058503;28;20237;-88
2023/04/07 09:12:38;;;;;;;8.97;6.90;;;12.50;73.40;;;;;;5039191;28;20238;-87
2023/04/07 09:15:06;;;;;;;7.77;6.83;;;12.40;74.90;;;;;;5056830;28;20212;-86
2023/04/07 09:17:31;;;;;;;6.90;6.30;;;12.60;71.00;;;;;;5037092;28;20249;-87
2023/04/07 09:20:01;;;;;;;6.67;6.03;;;12.80;70.70;;;;;;5030339;28;20195;-87
2023/04/07 09:22:41;;;;;;;7.10;6.40;;;13.00;70.70;;;;;;5038740;28;20555;-85
2023/04/07 09:25:28;;;;;;;6.73;6.13;;;12.60;70.40;;;;;;5023753;28;20212;-88
2023/04/07 09:28:01;;;;;;;9.70;6.43;;;12.70;71.90;;;;;;5037869;28;20711;-86
2023/04/07 09:30:28;;;;;;;6.17;5.60;;;12.90;68.70;;;;;;5035831;28;20187;-88
2023/04/07 09:32:55;;;;;;;7.60;6.07;;;13.00;69.70;;;;;;5019839;28;20279;-85
2023/04/07 09:35:23;;;;;;;7.37;5.80;;;13.20;68.00;;;;;;5019561;28;20289;-88
2023/04/07 09:38:01;;;;;;;5.97;5.47;;;13.50;67.20;;;;;;5036662;28;20187;-87
2023/04/07 09:40:26;;;;;;;8.23;6.33;;;13.50;67.20;;;;;;5036183;28;20194;-88
2023/04/07 09:42:52;;;;;;;7.27;5.90;;;13.30;71.00;;;;;;5035150;28;20190;-87
2023/04/07 09:45:29;;;;;;;7.57;6.50;;;13.00;72.20;;;;;;5042880;28;20211;-88
2023/04/07 09:47:54;;;;;;;7.30;6.60;;;12.40;74.70;;;;;;5018454;28;20186;-87
2023/04/07 09:50:34;;;;;;;6.53;5.90;;;12.50;75.50;;;;;;5035494;28;20188;-87
2023/04/07 09:53:01;;;;;;;6.97;6.27;;;12.70;74.50;;;;;;5036074;28;20414;-87
2023/04/07 09:55:27;;;;;;;6.37;5.77;;;12.70;72.90;;;;;;5021104;28;20626;-88
2023/04/07 09:57:57;;;;;;;6.57;5.97;;;13.00;71.40;;;;;;5022467;28;20184;-87
2023/04/07 10:00:23;;;;;;;7.63;6.20;;;13.20;69.60;;;;;;5032739;28;20192;-87
2023/04/07 10:02:50;;;;;;;7.03;6.33;;;13.40;70.20;;;;;;5038517;28;20216;-89
2023/04/07 10:05:16;;;;;;;6.83;6.23;;;13.40;72.20;;;;;;5041373;28;20203;-88
2023/04/07 10:07:42;;;;;;;6.93;5.70;;;14.00;68.60;;;;;;5036665;28;20185;-88
2023/04/07 10:10:09;;;;;;;7.23;5.90;;;14.40;65.70;;;;;;5018713;28;21320;-87
2023/04/07 10:12:37;;;;;;;6.23;5.70;;;14.20;68.90;;;;;;5043159;28;20199;-88
2023/04/07 10:15:03;;;;;;;6.83;6.03;;;14.50;66.60;;;;;;5038422;28;20909;-88
2023/04/07 10:17:31;;;;;;;5.50;5.00;;;14.90;64.60;;;;;;5036505;28;20235;-88
2023/04/07 10:20:01;;;;;;;6.23;5.37;;;15.20;60.50;;;;;;5016557;28;20192;-88
2023/04/07 10:22:27;;;;;;;7.40;5.10;;;15.50;59.60;;;;;;5019935;28;20242;-88
2023/04/07 10:24:58;;;;;;;6.43;5.77;;;15.40;57.60;;;;;;5015961;28;20213;-88
2023/04/07 10:27:30;;;;;;;6.63;5.63;;;14.40;63.30;;;;;;5019137;28;20190;-88
2023/04/07 10:29:57;;;;;;;5.20;4.40;;;14.70;60.70;;;;;;5016201;28;20182;-87
2023/04/07 10:32:23;;;;;;;6.77;5.33;;;14.80;60.00;;;;;;5038752;28;20257;-87
2023/04/07 10:34:54;;;;;;;5.83;5.23;;;14.90;60.00;;;;;;5035623;28;20404;-87
2023/04/07 10:37:21;;;;;;;7.73;6.07;;;14.60;61.50;;;;;;5038866;28;20194;-88
2023/04/07 10:39:50;;;;;;;5.63;5.13;;;14.80;61.30;;;;;;5022648;28;20197;-88
2023/04/07 10:42:37;;;;;;;5.63;4.50;;;15.00;59.20;;;;;;5036742;28;20714;-87
2023/04/07 10:45:08;;;;;;;5.90;5.23;;;15.30;60.30;;;;;;5035428;28;20208;-89
2023/04/07 10:47:54;;;;;;;4.77;4.23;;;15.70;57.40;;;;;;5026625;28;20203;-88
2023/04/07 10:50:22;;;;;;;7.13;4.87;;;16.00;56.70;;;;;;5036678;28;20247;-89
2023/04/07 10:53:03;;;;;;;7.87;7.17;;;16.50;55.00;;;;;;5054235;28;20240;-90
2023/04/07 10:55:29;;;;;;;5.30;4.27;;;16.80;53.90;;;;;;5020917;28;20269;-88
2023/04/07 10:58:28;;;;;;;5.67;4.83;;;17.10;53.30;;;;;;5012848;28;20187;-87
2023/04/07 11:01:05;;;;;;;6.67;4.80;;;17.40;49.20;;;;;;4969042;28;20235;-88
2023/04/07 11:03:35;;;;;;;5.57;4.97;;;17.40;49.50;;;;;;5035691;28;20271;-89
2023/04/07 11:06:06;;;;;;;7.93;7.23;;;17.20;52.60;;;;;;5038242;28;20210;-88
2023/04/07 11:08:33;;;;;;;7.33;5.17;;;17.40;50.70;;;;;;5036864;28;20169;-87
2023/04/07 11:10:59;;;;;;;5.43;4.93;;;17.30;50.00;;;;;;5031826;28;20217;-88
2023/04/07 11:13:26;;;;;;;5.83;5.03;;;16.70;52.10;;;;;;5036076;28;20185;-89
2023/04/07 11:15:52;;;;;;;4.87;4.37;;;16.60;52.40;;;;;;5018502;28;20235;-89
2023/04/07 11:18:19;;;;;;;5.30;4.80;;;16.90;51.50;;;;;;5032954;28;20616;-89
2023/04/07 11:20:54;;;;;;;5.27;4.77;;;17.00;50.30;;;;;;5030910;28;20200;-90
2023/04/07 11:23:24;;;;;;;4.83;4.33;;;16.80;51.60;;;;;;5036909;28;20606;-90
2023/04/07 11:25:51;;;;;;;6.03;5.27;;;16.90;50.50;;;;;;5036890;28;20207;-89
2023/04/07 11:28:18;;;;;;;5.13;4.70;;;15.90;53.10;;;;;;5032868;28;21365;-89
2023/04/07 11:30:54;;;;;;;5.87;4.30;;;15.80;52.60;;;;;;5032677;28;20195;-88
2023/04/07 11:33:21;;;;;;;4.93;4.53;;;16.10;52.60;;;;;;5021145;28;20283;-89
2023/04/07 11:35:48;;;;;;;6.17;5.00;;;16.00;54.10;;;;;;5030989;28;20218;-88
2023/04/07 11:38:15;;;;;;;5.13;4.63;;;15.60;56.00;;;;;;5032717;28;20216;-88
2023/04/07 11:40:41;;;;;;;5.27;4.77;;;15.40;57.50;;;;;;5031521;28;20192;-87
2023/04/07 11:43:25;;;;;;;4.37;3.97;;;15.90;54.20;;;;;;5036467;28;20188;-87
2023/04/07 11:46:11;;;;;;;4.93;4.37;;;16.20;51.10;;;;;;5032625;28;20196;-88
2023/04/07 11:48:39;;;;;;;4.13;3.53;;;16.20;51.40;;;;;;5011749;28;20190;-87
2023/04/07 11:51:06;;;;;;;7.33;3.67;;;16.40;50.10;;;;;;5014761;28;20200;-88
2023/04/07 11:53:34;;;;;;;4.10;3.70;;;16.70;50.10;;;;;;5034182;28;20232;-87
2023/04/07 11:56:15;;;;;;;4.57;4.10;;;16.30;54.50;;;;;;5032816;28;20412;-89
2023/04/07 11:58:54;;;;;;;4.43;3.90;;;16.40;51.90;;;;;;5030489;28;21358;-89
2023/04/07 12:01:23;;;;;;;7.60;5.47;;;15.60;53.60;;;;;;5011529;28;20232;-88
2023/04/07 12:04:02;;;;;;;7.60;4.43;;;15.40;53.30;;;;;;5033337;28;20177;-89
2023/04/07 12:06:37;;;;;;;5.87;4.30;;;15.90;52.50;;;;;;5033095;28;20226;-89
2023/04/07 12:09:07;;;;;;;4.13;3.60;;;16.40;51.40;;;;;;5028325;28;20554;-88
2023/04/07 12:11:34;;;;;;;6.33;4.10;;;17.20;48.30;;;;;;5032716;28;20196;-88
2023/04/07 12:14:03;;;;;;;4.67;3.90;;;17.40;48.40;;;;;;5018152;28;20335;-90
2023/04/07 12:16:29;;;;;;;7.23;3.90;;;17.60;45.80;;;;;;5031178;28;20311;-87
2023/04/07 12:18:56;;;;;;;4.77;3.70;;;17.80;45.90;;;;;;5009530;28;20209;-91
2023/04/07 12:21:24;;;;;;;4.90;4.00;;;17.70;46.10;;;;;;5032367;28;20211;-87
2023/04/07 12:23:50;;;;;;;4.17;3.43;;;17.70;45.20;;;;;;5030232;28;20209;-89
2023/04/07 12:26:16;;;;;;;4.17;3.47;;;18.10;44.90;;;;;;5033016;28;20220;-87
2023/04/07 12:28:42;;;;;;;5.27;3.50;;;18.30;41.20;;;;;;5029387;28;20184;-88
2023/04/07 12:31:07;;;;;;;4.87;3.30;;;17.60;42.80;;;;;;5035412;28;20218;-89
2023/04/07 12:33:33;;;;;;;5.55;4.00;;;17.40;47.10;;;;;;5018340;28;20200;-88
2023/04/07 12:35:59;;;;;;;4.05;3.47;;;17.80;45.40;;;;;;5019511;28;20253;-88
2023/04/07 12:38:25;;;;;;;4.00;3.38;;;18.20;45.00;;;;;;5042624;28;20944;-88
2023/04/07 12:40:51;;;;;;;4.47;4.07;;;18.50;46.10;;;;;;5035879;28;20278;-89
2023/04/07 12:43:17;;;;;;;5.05;4.13;;;18.50;45.10;;;;;;5032817;28;20284;-89
2023/04/07 12:45:43;;;;;;;6.17;4.47;;;18.40;44.80;;;;;;5031495;28;20854;-88
2023/04/07 12:48:09;;;;;;;4.22;3.83;;;18.40;43.90;;;;;;5031492;28;20280;-89
2023/04/07 12:50:36;;;;;;;5.30;4.15;;;18.30;44.80;;;;;;5014282;28;20190;-89
2023/04/07 12:53:04;;;;;;;7.27;4.10;;;17.90;46.90;;;;;;5033048;28;20199;-89
2023/04/07 12:55:35;;;;;;;6.60;4.53;;;17.30;49.70;;;;;;5035280;28;20205;-88